sensor_id;sensor_type;location;lat;lon;timestamp;temperature;humidity
3919;DHT22;1974;48.670;8.994;2024-03-22T00:02:07;9.60;99.90
3919;DHT22;1974;48.670;8.994;2024-03-22T00:04:34;9.60;99.90
3919;DHT22;1974;48.670;8.994;2024-03-22T00:07:02;9.50;99.90
3919;DHT22;1974;48.670;8.994;2024-03-22T00:09:29;9.60;99.90
3919;DHT22;1974;48.670;8.994;2024-03-22T00:11:55;9.60;99.90
3919;DHT22;1974;48.670;8.994;2024-03-22T00:14:22;9.60;99.90
3919;DHT22;1974;48.670;8.994;2024-03-22T00:16:48;9.60;99.90
3919;DHT22;1974;48.670;8.994;2024-03-22T00:19:14;9.50;99.90
3919;DHT22;1974;48.670;8.994;2024-03-22T00:21:40;9.50;99.90
3919;DHT22;1974;48.670;8.994;2024-03-22T00:24:08;9.50;99.90
3919;DHT22;1974;48.670;8.994;2024-03-22T00:26:34;9.40;99.90
3919;DHT22;1974;48.670;8.994;2024-03-22T00:29:01;9.50;99.90
3919;DHT22;1974;48.670;8.994;2024-03-22T00:31:27;9.30;99.90
3919;DHT22;1974;48.670;8.994;2024-03-22T00:33:53;9.30;99.90
3919;DHT22;1974;48.670;8.994;2024-03-22T00:36:19;9.30;99.90
3919;DHT22;1974;48.670;8.994;2024-03-22T00:38:46;9.20;99.90
3919;DHT22;1974;48.670;8.994;2024-03-22T00:41:14;9.30;99.90
3919;DHT22;1974;48.670;8.994;2024-03-22T00:43:40;9.20;99.90
3919;DHT22;1974;48.670;8.994;2024-03-22T00:46:06;9.20;99.90
3919;DHT22;1974;48.670;8.994;2024-03-22T00:48:33;9.10;99.90
3919;DHT22;1974;48.670;8.994;2024-03-22T00:51:00;9.10;99.90
3919;DHT22;1974;48.670;8.994;2024-03-22T00:53:27;9.10;99.90
3919;DHT22;1974;48.670;8.994;2024-03-22T00:55:54;9.00;99.90
3919;DHT22;1974;48.670;8.994;2024-03-22T00:58:23;9.00;99.90
3919;DHT22;1974;48.670;8.994;2024-03-22T01:00:48;9.00;99.90
3919;DHT22;1974;48.670;8.994;2024-03-22T01:03:15;9.00;99.90
3919;DHT22;1974;48.670;8.994;2024-03-22T01:05:41;8.90;99.90
3919;DHT22;1974;48.670;8.994;2024-03-22T01:08:08;8.90;99.90
3919;DHT22;1974;48.670;8.994;2024-03-22T01:10:34;8.90;99.90
3919;DHT22;1974;48.670;8.994;2024-03-22T01:13:00;8.90;99.90
3919;DHT22;1974;48.670;8.994;2024-03-22T01:15:28;8.90;99.90
3919;DHT22;1974;48.670;8.994;2024-03-22T01:17:55;8.90;99.90
3919;DHT22;1974;48.670;8.994;2024-03-22T01:20:21;8.80;99.90
3919;DHT22;1974;48.670;8.994;2024-03-22T01:22:48;8.80;99.90
3919;DHT22;1974;48.670;8.994;2024-03-22T01:25:14;8.80;99.90
3919;DHT22;1974;48.670;8.994;2024-03-22T01:27:41;8.80;99.90
3919;DHT22;1974;48.670;8.994;2024-03-22T01:30:07;8.80;99.90
3919;DHT22;1974;48.670;8.994;2024-03-22T01:32:36;8.70;99.90
3919;DHT22;1974;48.670;8.994;2024-03-22T01:35:02;8.70;99.90
3919;DHT22;1974;48.670;8.994;2024-03-22T01:37:29;8.70;99.90
3919;DHT22;1974;48.670;8.994;2024-03-22T01:39:55;8.60;99.90
3919;DHT22;1974;48.670;8.994;2024-03-22T01:42:22;8.60;99.90
3919;DHT22;1974;48.670;8.994;2024-03-22T01:44:49;8.60;99.90
3919;DHT22;1974;48.670;8.994;2024-03-22T01:47:16;8.60;99.90
3919;DHT22;1974;48.670;8.994;2024-03-22T01:49:43;8.50;99.90
3919;DHT22;1974;48.670;8.994;2024-03-22T01:52:10;8.60;99.90
3919;DHT22;1974;48.670;8.994;2024-03-22T01:54:36;8.50;99.90
3919;DHT22;1974;48.670;8.994;2024-03-22T01:57:03;8.40;99.90
3919;DHT22;1974;48.670;8.994;2024-03-22T01:59:30;8.40;99.90
3919;DHT22;1974;48.670;8.994;2024-03-22T02:01:57;8.40;99.90
3919;DHT22;1974;48.670;8.994;2024-03-22T02:04:23;8.30;99.90
3919;DHT22;1974;48.670;8.994;2024-03-22T02:06:51;8.20;99.90
3919;DHT22;1974;48.670;8.994;2024-03-22T02:09:17;8.20;99.90
3919;DHT22;1974;48.670;8.994;2024-03-22T02:11:46;8.10;99.90
3919;DHT22;1974;48.670;8.994;2024-03-22T02:14:12;8.10;99.90
3919;DHT22;1974;48.670;8.994;2024-03-22T02:16:39;8.00;99.90
3919;DHT22;1974;48.670;8.994;2024-03-22T02:19:06;8.00;99.90
3919;DHT22;1974;48.670;8.994;2024-03-22T02:21:32;7.80;99.90
3919;DHT22;1974;48.670;8.994;2024-03-22T02:23:59;8.00;99.90
3919;DHT22;1974;48.670;8.994;2024-03-22T02:26:26;7.80;99.90
3919;DHT22;1974;48.670;8.994;2024-03-22T02:28:52;7.90;99.90
3919;DHT22;1974;48.670;8.994;2024-03-22T02:34:56;7.80;99.90
3919;DHT22;1974;48.670;8.994;2024-03-22T02:37:22;7.70;99.90
3919;DHT22;1974;48.670;8.994;2024-03-22T02:39:50;7.70;99.90
3919;DHT22;1974;48.670;8.994;2024-03-22T02:42:16;7.70;99.90
3919;DHT22;1974;48.670;8.994;2024-03-22T02:44:42;7.70;99.90
3919;DHT22;1974;48.670;8.994;2024-03-22T02:47:09;7.80;99.90
3919;DHT22;1974;48.670;8.994;2024-03-22T02:49:35;7.70;99.90
3919;DHT22;1974;48.670;8.994;2024-03-22T02:52:02;7.70;99.90
3919;DHT22;1974;48.670;8.994;2024-03-22T02:54:28;7.70;99.90
3919;DHT22;1974;48.670;8.994;2024-03-22T02:56:56;7.70;99.90
3919;DHT22;1974;48.670;8.994;2024-03-22T02:59:25;7.70;99.90
3919;DHT22;1974;48.670;8.994;2024-03-22T03:01:52;7.70;99.90
3919;DHT22;1974;48.670;8.994;2024-03-22T03:04:18;7.80;99.90
3919;DHT22;1974;48.670;8.994;2024-03-22T03:06:45;7.70;99.90
3919;DHT22;1974;48.670;8.994;2024-03-22T03:09:11;7.90;99.90
3919;DHT22;1974;48.670;8.994;2024-03-22T03:11:38;7.90;99.90
3919;DHT22;1974;48.670;8.994;2024-03-22T03:14:06;8.00;99.90
3919;DHT22;1974;48.670;8.994;2024-03-22T03:16:33;8.10;99.90
3919;DHT22;1974;48.670;8.994;2024-03-22T03:18:58;8.10;99.90
3919;DHT22;1974;48.670;8.994;2024-03-22T03:21:25;8.20;99.90
3919;DHT22;1974;48.670;8.994;2024-03-22T03:23:51;8.20;99.90
3919;DHT22;1974;48.670;8.994;2024-03-22T03:26:18;8.20;99.90
3919;DHT22;1974;48.670;8.994;2024-03-22T03:28:44;8.30;99.90
3919;DHT22;1974;48.670;8.994;2024-03-22T03:31:12;8.30;99.90
3919;DHT22;1974;48.670;8.994;2024-03-22T03:33:38;8.30;99.90
3919;DHT22;1974;48.670;8.994;2024-03-22T03:36:05;8.30;99.90
3919;DHT22;1974;48.670;8.994;2024-03-22T03:38:31;8.30;99.90
3919;DHT22;1974;48.670;8.994;2024-03-22T03:40:58;8.30;99.90
3919;DHT22;1974;48.670;8.994;2024-03-22T03:43:23;8.20;99.90
3919;DHT22;1974;48.670;8.994;2024-03-22T03:45:50;8.20;99.90
3919;DHT22;1974;48.670;8.994;2024-03-22T03:48:17;8.30;99.90
3919;DHT22;1974;48.670;8.994;2024-03-22T03:50:51;8.20;99.90
3919;DHT22;1974;48.670;8.994;2024-03-22T03:53:17;8.20;99.90
3919;DHT22;1974;48.670;8.994;2024-03-22T03:55:44;8.20;99.90
3919;DHT22;1974;48.670;8.994;2024-03-22T03:58:10;8.20;99.90
3919;DHT22;1974;48.670;8.994;2024-03-22T04:00:37;8.30;99.90
3919;DHT22;1974;48.670;8.994;2024-03-22T04:03:03;8.20;99.90
3919;DHT22;1974;48.670;8.994;2024-03-22T04:05:31;8.20;99.90
3919;DHT22;1974;48.670;8.994;2024-03-22T04:07:57;8.20;99.90
3919;DHT22;1974;48.670;8.994;2024-03-22T04:10:24;8.10;99.90
3919;DHT22;1974;48.670;8.994;2024-03-22T04:12:49;8.10;99.90
3919;DHT22;1974;48.670;8.994;2024-03-22T04:15:16;8.20;99.90
3919;DHT22;1974;48.670;8.994;2024-03-22T04:17:42;8.10;99.90
3919;DHT22;1974;48.670;8.994;2024-03-22T04:20:10;8.10;99.90
3919;DHT22;1974;48.670;8.994;2024-03-22T04:22:38;8.20;99.90
3919;DHT22;1974;48.670;8.994;2024-03-22T04:25:06;8.10;99.90
3919;DHT22;1974;48.670;8.994;2024-03-22T04:27:31;8.20;99.90
3919;DHT22;1974;48.670;8.994;2024-03-22T04:29:58;8.20;99.90
3919;DHT22;1974;48.670;8.994;2024-03-22T04:32:25;8.30;99.90
3919;DHT22;1974;48.670;8.994;2024-03-22T04:34:52;8.30;99.90
3919;DHT22;1974;48.670;8.994;2024-03-22T04:37:20;8.30;99.90
3919;DHT22;1974;48.670;8.994;2024-03-22T04:39:48;8.30;99.90
3919;DHT22;1974;48.670;8.994;2024-03-22T04:42:15;8.30;99.90
3919;DHT22;1974;48.670;8.994;2024-03-22T04:44:42;8.40;99.90
3919;DHT22;1974;48.670;8.994;2024-03-22T04:47:09;8.40;99.90
3919;DHT22;1974;48.670;8.994;2024-03-22T04:49:35;8.40;99.90
3919;DHT22;1974;48.670;8.994;2024-03-22T04:52:01;8.50;99.90
3919;DHT22;1974;48.670;8.994;2024-03-22T04:54:27;8.50;99.90
3919;DHT22;1974;48.670;8.994;2024-03-22T04:56:55;8.50;99.90
3919;DHT22;1974;48.670;8.994;2024-03-22T04:59:21;8.60;99.90
3919;DHT22;1974;48.670;8.994;2024-03-22T05:01:48;8.60;99.90
3919;DHT22;1974;48.670;8.994;2024-03-22T05:04:14;8.60;99.90
3919;DHT22;1974;48.670;8.994;2024-03-22T05:06:40;8.60;99.90
3919;DHT22;1974;48.670;8.994;2024-03-22T05:09:06;8.60;99.90
3919;DHT22;1974;48.670;8.994;2024-03-22T05:11:35;8.60;99.90
3919;DHT22;1974;48.670;8.994;2024-03-22T05:14:02;8.60;99.90
3919;DHT22;1974;48.670;8.994;2024-03-22T05:16:29;8.60;99.90
3919;DHT22;1974;48.670;8.994;2024-03-22T05:18:55;8.60;99.90
3919;DHT22;1974;48.670;8.994;2024-03-22T05:21:22;8.60;99.90
3919;DHT22;1974;48.670;8.994;2024-03-22T05:23:48;8.50;99.90
3919;DHT22;1974;48.670;8.994;2024-03-22T05:26:15;8.50;99.90
3919;DHT22;1974;48.670;8.994;2024-03-22T05:28:40;8.40;99.90
3919;DHT22;1974;48.670;8.994;2024-03-22T05:31:09;8.40;99.90
3919;DHT22;1974;48.670;8.994;2024-03-22T05:33:35;8.30;99.90
3919;DHT22;1974;48.670;8.994;2024-03-22T05:36:01;8.30;99.90
3919;DHT22;1974;48.670;8.994;2024-03-22T05:38:27;8.30;99.90
3919;DHT22;1974;48.670;8.994;2024-03-22T05:40:54;8.30;99.90
3919;DHT22;1974;48.670;8.994;2024-03-22T05:43:20;8.30;99.90
3919;DHT22;1974;48.670;8.994;2024-03-22T05:45:47;8.50;99.90
3919;DHT22;1974;48.670;8.994;2024-03-22T05:48:15;8.40;99.90
3919;DHT22;1974;48.670;8.994;2024-03-22T05:50:42;8.30;99.90
3919;DHT22;1974;48.670;8.994;2024-03-22T05:53:08;8.40;99.90
3919;DHT22;1974;48.670;8.994;2024-03-22T05:55:34;8.40;99.90
3919;DHT22;1974;48.670;8.994;2024-03-22T05:58:00;8.50;99.90
3919;DHT22;1974;48.670;8.994;2024-03-22T06:00:27;8.60;99.90
3919;DHT22;1974;48.670;8.994;2024-03-22T06:02:52;8.70;99.90
3919;DHT22;1974;48.670;8.994;2024-03-22T06:05:21;8.70;99.90
3919;DHT22;1974;48.670;8.994;2024-03-22T06:07:46;8.80;99.90
3919;DHT22;1974;48.670;8.994;2024-03-22T06:10:13;8.90;99.90
3919;DHT22;1974;48.670;8.994;2024-03-22T06:12:39;8.90;99.90
3919;DHT22;1974;48.670;8.994;2024-03-22T06:15:07;9.00;99.90
3919;DHT22;1974;48.670;8.994;2024-03-22T06:17:33;9.10;99.90
3919;DHT22;1974;48.670;8.994;2024-03-22T06:20:00;9.10;99.90
3919;DHT22;1974;48.670;8.994;2024-03-22T06:22:27;9.20;99.90
3919;DHT22;1974;48.670;8.994;2024-03-22T06:24:53;9.30;99.90
3919;DHT22;1974;48.670;8.994;2024-03-22T06:27:19;9.40;99.90
3919;DHT22;1974;48.670;8.994;2024-03-22T06:29:46;9.60;99.90
3919;DHT22;1974;48.670;8.994;2024-03-22T06:32:12;9.70;99.90
3919;DHT22;1974;48.670;8.994;2024-03-22T06:34:38;9.80;99.90
3919;DHT22;1974;48.670;8.994;2024-03-22T06:37:04;9.90;99.90
3919;DHT22;1974;48.670;8.994;2024-03-22T06:39:32;9.90;99.90
3919;DHT22;1974;48.670;8.994;2024-03-22T06:41:58;10.00;99.90
3919;DHT22;1974;48.670;8.994;2024-03-22T06:44:25;9.90;99.90
3919;DHT22;1974;48.670;8.994;2024-03-22T06:46:51;9.90;99.90
3919;DHT22;1974;48.670;8.994;2024-03-22T06:49:18;9.90;99.90
3919;DHT22;1974;48.670;8.994;2024-03-22T06:51:43;9.90;99.90
3919;DHT22;1974;48.670;8.994;2024-03-22T06:54:10;9.90;99.90
3919;DHT22;1974;48.670;8.994;2024-03-22T06:56:37;10.00;99.90
3919;DHT22;1974;48.670;8.994;2024-03-22T06:59:04;10.10;99.90
3919;DHT22;1974;48.670;8.994;2024-03-22T07:01:30;10.30;99.90
3919;DHT22;1974;48.670;8.994;2024-03-22T07:03:56;10.30;99.90
3919;DHT22;1974;48.670;8.994;2024-03-22T07:06:22;10.20;99.90
3919;DHT22;1974;48.670;8.994;2024-03-22T07:08:49;10.30;99.90
3919;DHT22;1974;48.670;8.994;2024-03-22T07:11:15;10.20;99.90
3919;DHT22;1974;48.670;8.994;2024-03-22T07:13:43;10.20;99.90
3919;DHT22;1974;48.670;8.994;2024-03-22T07:16:09;10.20;99.90
3919;DHT22;1974;48.670;8.994;2024-03-22T07:18:35;10.20;99.90
3919;DHT22;1974;48.670;8.994;2024-03-22T07:21:02;10.20;99.90
3919;DHT22;1974;48.670;8.994;2024-03-22T07:23:29;10.20;99.90
3919;DHT22;1974;48.670;8.994;2024-03-22T07:25:55;10.30;99.90
3919;DHT22;1974;48.670;8.994;2024-03-22T07:28:21;10.30;99.90
3919;DHT22;1974;48.670;8.994;2024-03-22T07:30:49;10.30;99.90
3919;DHT22;1974;48.670;8.994;2024-03-22T07:33:15;10.40;99.90
3919;DHT22;1974;48.670;8.994;2024-03-22T07:35:43;10.50;99.90
3919;DHT22;1974;48.670;8.994;2024-03-22T07:38:10;10.60;99.90
3919;DHT22;1974;48.670;8.994;2024-03-22T07:40:36;10.70;99.90
3919;DHT22;1974;48.670;8.994;2024-03-22T07:43:03;10.90;99.90
3919;DHT22;1974;48.670;8.994;2024-03-22T07:45:31;11.00;99.90
3919;DHT22;1974;48.670;8.994;2024-03-22T07:47:59;11.20;99.90
3919;DHT22;1974;48.670;8.994;2024-03-22T07:50:25;11.40;99.90
3919;DHT22;1974;48.670;8.994;2024-03-22T07:52:52;11.40;99.90
3919;DHT22;1974;48.670;8.994;2024-03-22T07:55:18;11.60;99.90
3919;DHT22;1974;48.670;8.994;2024-03-22T07:57:45;11.70;99.90
3919;DHT22;1974;48.670;8.994;2024-03-22T08:00:12;11.80;99.90
3919;DHT22;1974;48.670;8.994;2024-03-22T08:02:39;11.80;99.90
3919;DHT22;1974;48.670;8.994;2024-03-22T08:05:06;12.00;99.90
3919;DHT22;1974;48.670;8.994;2024-03-22T08:07:33;12.10;99.90
3919;DHT22;1974;48.670;8.994;2024-03-22T08:09:59;12.30;99.90
3919;DHT22;1974;48.670;8.994;2024-03-22T08:12:27;12.40;99.90
3919;DHT22;1974;48.670;8.994;2024-03-22T08:14:53;12.50;99.90
3919;DHT22;1974;48.670;8.994;2024-03-22T08:17:21;12.50;99.90
3919;DHT22;1974;48.670;8.994;2024-03-22T08:19:47;12.60;99.90
3919;DHT22;1974;48.670;8.994;2024-03-22T08:22:15;12.70;99.90
3919;DHT22;1974;48.670;8.994;2024-03-22T08:24:40;13.00;99.90
3919;DHT22;1974;48.670;8.994;2024-03-22T08:27:07;13.70;99.90
3919;DHT22;1974;48.670;8.994;2024-03-22T08:29:33;14.00;99.90
3919;DHT22;1974;48.670;8.994;2024-03-22T08:32:00;14.60;99.90
3919;DHT22;1974;48.670;8.994;2024-03-22T08:34:28;15.20;99.90
3919;DHT22;1974;48.670;8.994;2024-03-22T08:36:55;15.70;99.90
3919;DHT22;1974;48.670;8.994;2024-03-22T08:39:22;16.00;99.90
3919;DHT22;1974;48.670;8.994;2024-03-22T08:41:51;16.10;99.90
3919;DHT22;1974;48.670;8.994;2024-03-22T08:44:16;16.10;99.90
3919;DHT22;1974;48.670;8.994;2024-03-22T08:46:43;16.20;99.90
3919;DHT22;1974;48.670;8.994;2024-03-22T08:49:09;16.50;99.90
3919;DHT22;1974;48.670;8.994;2024-03-22T08:51:37;16.60;99.90
3919;DHT22;1974;48.670;8.994;2024-03-22T08:54:03;16.70;99.90
3919;DHT22;1974;48.670;8.994;2024-03-22T08:56:31;16.70;99.90
3919;DHT22;1974;48.670;8.994;2024-03-22T08:58:57;16.80;99.90
3919;DHT22;1974;48.670;8.994;2024-03-22T09:01:24;16.80;99.90
3919;DHT22;1974;48.670;8.994;2024-03-22T09:03:50;17.00;99.90
3919;DHT22;1974;48.670;8.994;2024-03-22T09:06:17;17.10;99.90
3919;DHT22;1974;48.670;8.994;2024-03-22T09:08:43;17.30;99.90
3919;DHT22;1974;48.670;8.994;2024-03-22T09:11:09;17.70;99.90
3919;DHT22;1974;48.670;8.994;2024-03-22T09:13:36;18.60;99.90
3919;DHT22;1974;48.670;8.994;2024-03-22T09:16:04;20.20;99.90
3919;DHT22;1974;48.670;8.994;2024-03-22T09:18:29;21.60;99.90
3919;DHT22;1974;48.670;8.994;2024-03-22T09:20:56;23.00;99.90
3919;DHT22;1974;48.670;8.994;2024-03-22T09:23:23;23.90;97.00
3919;DHT22;1974;48.670;8.994;2024-03-22T09:25:49;24.50;93.60
3919;DHT22;1974;48.670;8.994;2024-03-22T09:28:15;25.50;92.70
3919;DHT22;1974;48.670;8.994;2024-03-22T09:30:44;26.70;90.00
3919;DHT22;1974;48.670;8.994;2024-03-22T09:33:10;26.80;82.10
3919;DHT22;1974;48.670;8.994;2024-03-22T09:35:37;27.10;79.40
3919;DHT22;1974;48.670;8.994;2024-03-22T09:38:03;27.30;78.50
3919;DHT22;1974;48.670;8.994;2024-03-22T09:40:30;27.40;74.70
3919;DHT22;1974;48.670;8.994;2024-03-22T09:43:01;26.90;72.10
3919;DHT22;1974;48.670;8.994;2024-03-22T09:45:30;26.20;74.20
3919;DHT22;1974;48.670;8.994;2024-03-22T09:47:58;25.50;73.60
3919;DHT22;1974;48.670;8.994;2024-03-22T09:50:25;25.00;75.50
3919;DHT22;1974;48.670;8.994;2024-03-22T09:52:52;24.80;76.90
3919;DHT22;1974;48.670;8.994;2024-03-22T09:55:22;25.10;78.20
3919;DHT22;1974;48.670;8.994;2024-03-22T09:57:49;25.80;76.10
3919;DHT22;1974;48.670;8.994;2024-03-22T10:00:18;26.10;74.70
3919;DHT22;1974;48.670;8.994;2024-03-22T10:02:46;26.50;73.40
3919;DHT22;1974;48.670;8.994;2024-03-22T10:05:15;26.60;71.90
3919;DHT22;1974;48.670;8.994;2024-03-22T10:07:43;26.50;71.40
3919;DHT22;1974;48.670;8.994;2024-03-22T10:10:10;25.60;71.80
3919;DHT22;1974;48.670;8.994;2024-03-22T10:12:36;25.00;72.20
3919;DHT22;1974;48.670;8.994;2024-03-22T10:15:04;24.60;74.30
3919;DHT22;1974;48.670;8.994;2024-03-22T10:17:30;24.30;74.70
3919;DHT22;1974;48.670;8.994;2024-03-22T10:19:57;24.10;75.30
3919;DHT22;1974;48.670;8.994;2024-03-22T10:22:25;23.90;76.10
3919;DHT22;1974;48.670;8.994;2024-03-22T10:24:51;23.60;75.00
3919;DHT22;1974;48.670;8.994;2024-03-22T10:27:19;23.60;76.60
3919;DHT22;1974;48.670;8.994;2024-03-22T10:29:46;24.00;76.80
3919;DHT22;1974;48.670;8.994;2024-03-22T10:32:12;24.70;74.20
3919;DHT22;1974;48.670;8.994;2024-03-22T10:34:40;25.40;73.40
3919;DHT22;1974;48.670;8.994;2024-03-22T10:37:08;25.40;72.30
3919;DHT22;1974;48.670;8.994;2024-03-22T10:39:38;25.10;72.80
3919;DHT22;1974;48.670;8.994;2024-03-22T10:42:06;25.00;74.90
3919;DHT22;1974;48.670;8.994;2024-03-22T10:44:32;24.60;72.90
3919;DHT22;1974;48.670;8.994;2024-03-22T10:47:01;24.20;75.00
3919;DHT22;1974;48.670;8.994;2024-03-22T10:49:28;23.40;74.40
3919;DHT22;1974;48.670;8.994;2024-03-22T10:51:59;22.50;75.40
3919;DHT22;1974;48.670;8.994;2024-03-22T10:54:30;21.90;76.40
3919;DHT22;1974;48.670;8.994;2024-03-22T10:56:59;21.80;77.90
3919;DHT22;1974;48.670;8.994;2024-03-22T10:59:26;22.10;78.40
3919;DHT22;1974;48.670;8.994;2024-03-22T11:01:52;22.10;79.30
3919;DHT22;1974;48.670;8.994;2024-03-22T11:04:20;22.20;78.00
3919;DHT22;1974;48.670;8.994;2024-03-22T11:06:48;22.40;78.50
3919;DHT22;1974;48.670;8.994;2024-03-22T11:09:20;23.10;77.10
3919;DHT22;1974;48.670;8.994;2024-03-22T11:11:47;23.40;75.80
3919;DHT22;1974;48.670;8.994;2024-03-22T11:14:15;23.50;75.70
3919;DHT22;1974;48.670;8.994;2024-03-22T11:16:43;23.60;77.70
3919;DHT22;1974;48.670;8.994;2024-03-22T11:19:09;23.40;75.80
3919;DHT22;1974;48.670;8.994;2024-03-22T11:21:35;23.00;75.70
3919;DHT22;1974;48.670;8.994;2024-03-22T11:24:02;22.80;77.10
3919;DHT22;1974;48.670;8.994;2024-03-22T11:26:28;22.70;78.60
3919;DHT22;1974;48.670;8.994;2024-03-22T11:28:55;22.30;76.90
3919;DHT22;1974;48.670;8.994;2024-03-22T11:31:22;22.00;75.70
3919;DHT22;1974;48.670;8.994;2024-03-22T11:33:53;21.80;77.50
3919;DHT22;1974;48.670;8.994;2024-03-22T11:36:19;21.20;77.80
3919;DHT22;1974;48.670;8.994;2024-03-22T11:38:46;21.10;78.20
3919;DHT22;1974;48.670;8.994;2024-03-22T11:41:16;21.00;79.90
3919;DHT22;1974;48.670;8.994;2024-03-22T11:43:44;20.90;80.80
3919;DHT22;1974;48.670;8.994;2024-03-22T11:46:10;21.00;80.60
3919;DHT22;1974;48.670;8.994;2024-03-22T11:48:40;21.30;78.60
3919;DHT22;1974;48.670;8.994;2024-03-22T11:51:06;21.40;79.00
3919;DHT22;1974;48.670;8.994;2024-03-22T11:53:34;21.50;77.20
3919;DHT22;1974;48.670;8.994;2024-03-22T11:56:00;21.50;77.40
3919;DHT22;1974;48.670;8.994;2024-03-22T11:58:29;21.50;78.50
3919;DHT22;1974;48.670;8.994;2024-03-22T12:00:55;21.60;78.40
3919;DHT22;1974;48.670;8.994;2024-03-22T12:03:25;21.50;78.00
3919;DHT22;1974;48.670;8.994;2024-03-22T12:05:59;21.40;76.80
3919;DHT22;1974;48.670;8.994;2024-03-22T12:08:42;21.10;77.00
3919;DHT22;1974;48.670;8.994;2024-03-22T12:11:12;21.00;78.30
3919;DHT22;1974;48.670;8.994;2024-03-22T12:13:43;21.00;80.80
3919;DHT22;1974;48.670;8.994;2024-03-22T12:16:10;21.10;80.60
3919;DHT22;1974;48.670;8.994;2024-03-22T12:18:41;21.20;80.40
3919;DHT22;1974;48.670;8.994;2024-03-22T12:21:17;21.30;78.60
3919;DHT22;1974;48.670;8.994;2024-03-22T12:23:51;21.40;77.90
3919;DHT22;1974;48.670;8.994;2024-03-22T12:26:26;21.70;79.30
3919;DHT22;1974;48.670;8.994;2024-03-22T12:28:58;21.70;76.00
3919;DHT22;1974;48.670;8.994;2024-03-22T12:31:33;21.70;78.00
3919;DHT22;1974;48.670;8.994;2024-03-22T12:34:04;21.70;75.70
3919;DHT22;1974;48.670;8.994;2024-03-22T12:36:34;21.70;78.80
3919;DHT22;1974;48.670;8.994;2024-03-22T12:39:02;21.60;77.30
3919;DHT22;1974;48.670;8.994;2024-03-22T12:41:28;21.40;76.80
3919;DHT22;1974;48.670;8.994;2024-03-22T12:43:55;21.40;77.90
3919;DHT22;1974;48.670;8.994;2024-03-22T12:46:21;21.40;76.70
3919;DHT22;1974;48.670;8.994;2024-03-22T12:48:48;21.20;75.80
3919;DHT22;1974;48.670;8.994;2024-03-22T12:51:14;21.00;77.90
3919;DHT22;1974;48.670;8.994;2024-03-22T12:53:42;21.10;78.40
3919;DHT22;1974;48.670;8.994;2024-03-22T12:56:07;21.00;78.60
3919;DHT22;1974;48.670;8.994;2024-03-22T12:58:34;21.00;77.00
3919;DHT22;1974;48.670;8.994;2024-03-22T13:01:00;21.00;78.30
3919;DHT22;1974;48.670;8.994;2024-03-22T13:03:27;21.00;77.00
3919;DHT22;1974;48.670;8.994;2024-03-22T13:05:53;21.10;78.20
3919;DHT22;1974;48.670;8.994;2024-03-22T13:08:20;21.10;77.10
3919;DHT22;1974;48.670;8.994;2024-03-22T13:10:47;21.10;76.60
3919;DHT22;1974;48.670;8.994;2024-03-22T13:13:14;20.90;77.40
3919;DHT22;1974;48.670;8.994;2024-03-22T13:15:42;20.90;77.40
3919;DHT22;1974;48.670;8.994;2024-03-22T13:18:09;20.50;77.50
3919;DHT22;1974;48.670;8.994;2024-03-22T13:20:35;20.60;78.40
3919;DHT22;1974;48.670;8.994;2024-03-22T13:23:02;20.70;78.40
3919;DHT22;1974;48.670;8.994;2024-03-22T13:25:28;20.60;77.60
3919;DHT22;1974;48.670;8.994;2024-03-22T13:27:56;20.60;79.20
3919;DHT22;1974;48.670;8.994;2024-03-22T13:30:22;20.70;76.70
3919;DHT22;1974;48.670;8.994;2024-03-22T13:32:49;20.80;76.70
3919;DHT22;1974;48.670;8.994;2024-03-22T13:35:15;20.80;77.90
3919;DHT22;1974;48.670;8.994;2024-03-22T13:37:41;20.90;76.70
3919;DHT22;1974;48.670;8.994;2024-03-22T13:40:08;20.90;76.40
3919;DHT22;1974;48.670;8.994;2024-03-22T13:42:35;20.90;76.60
3919;DHT22;1974;48.670;8.994;2024-03-22T13:45:02;21.00;73.90
3919;DHT22;1974;48.670;8.994;2024-03-22T13:47:29;20.90;75.80
3919;DHT22;1974;48.670;8.994;2024-03-22T13:49:55;20.70;74.20
3919;DHT22;1974;48.670;8.994;2024-03-22T13:52:22;20.70;74.50
3919;DHT22;1974;48.670;8.994;2024-03-22T13:54:48;20.50;73.30
3919;DHT22;1974;48.670;8.994;2024-03-22T13:57:15;20.40;74.90
3919;DHT22;1974;48.670;8.994;2024-03-22T13:59:41;20.20;76.30
3919;DHT22;1974;48.670;8.994;2024-03-22T14:02:09;20.20;74.70
3919;DHT22;1974;48.670;8.994;2024-03-22T14:04:35;19.80;73.90
3919;DHT22;1974;48.670;8.994;2024-03-22T14:07:02;19.70;74.30
3919;DHT22;1974;48.670;8.994;2024-03-22T14:09:30;19.50;75.30
3919;DHT22;1974;48.670;8.994;2024-03-22T14:11:57;19.50;74.40
3919;DHT22;1974;48.670;8.994;2024-03-22T14:14:23;19.60;72.10
3919;DHT22;1974;48.670;8.994;2024-03-22T14:16:50;19.70;70.10
3919;DHT22;1974;48.670;8.994;2024-03-22T14:19:17;19.80;70.90
3919;DHT22;1974;48.670;8.994;2024-03-22T14:21:44;19.90;73.10
3919;DHT22;1974;48.670;8.994;2024-03-22T14:24:10;20.00;72.60
3919;DHT22;1974;48.670;8.994;2024-03-22T14:26:37;20.10;71.00
3919;DHT22;1974;48.670;8.994;2024-03-22T14:29:08;20.10;68.50
3919;DHT22;1974;48.670;8.994;2024-03-22T14:31:34;20.10;67.00
3919;DHT22;1974;48.670;8.994;2024-03-22T14:34:00;20.00;66.50
3919;DHT22;1974;48.670;8.994;2024-03-22T14:36:28;19.90;65.70
3919;DHT22;1974;48.670;8.994;2024-03-22T14:38:54;19.70;66.20
3919;DHT22;1974;48.670;8.994;2024-03-22T14:41:21;19.60;68.50
3919;DHT22;1974;48.670;8.994;2024-03-22T14:43:47;19.70;69.30
3919;DHT22;1974;48.670;8.994;2024-03-22T14:46:14;19.60;67.20
3919;DHT22;1974;48.670;8.994;2024-03-22T14:48:39;19.60;67.00
3919;DHT22;1974;48.670;8.994;2024-03-22T14:51:06;19.50;69.80
3919;DHT22;1974;48.670;8.994;2024-03-22T14:53:36;19.60;68.30
3919;DHT22;1974;48.670;8.994;2024-03-22T14:56:04;19.60;67.60
3919;DHT22;1974;48.670;8.994;2024-03-22T14:58:30;19.50;70.20
3919;DHT22;1974;48.670;8.994;2024-03-22T15:00:57;19.40;69.80
3919;DHT22;1974;48.670;8.994;2024-03-22T15:03:24;19.20;69.70
3919;DHT22;1974;48.670;8.994;2024-03-22T15:05:51;19.10;69.50
3919;DHT22;1974;48.670;8.994;2024-03-22T15:08:17;19.00;69.80
3919;DHT22;1974;48.670;8.994;2024-03-22T15:10:45;19.00;70.40
3919;DHT22;1974;48.670;8.994;2024-03-22T15:13:11;19.00;70.10
3919;DHT22;1974;48.670;8.994;2024-03-22T15:15:38;19.00;69.10
3919;DHT22;1974;48.670;8.994;2024-03-22T15:18:05;19.10;68.80
3919;DHT22;1974;48.670;8.994;2024-03-22T15:20:32;19.10;68.10
3919;DHT22;1974;48.670;8.994;2024-03-22T15:22:58;19.10;70.00
3919;DHT22;1974;48.670;8.994;2024-03-22T15:25:25;19.20;70.40
3919;DHT22;1974;48.670;8.994;2024-03-22T15:27:52;19.10;67.00
3919;DHT22;1974;48.670;8.994;2024-03-22T15:30:19;19.00;68.00
3919;DHT22;1974;48.670;8.994;2024-03-22T15:32:45;19.00;69.10
3919;DHT22;1974;48.670;8.994;2024-03-22T15:35:12;19.00;68.70
3919;DHT22;1974;48.670;8.994;2024-03-22T15:37:38;19.00;66.60
3919;DHT22;1974;48.670;8.994;2024-03-22T15:40:08;18.90;67.10
3919;DHT22;1974;48.670;8.994;2024-03-22T15:42:34;18.90;67.60
3919;DHT22;1974;48.670;8.994;2024-03-22T15:45:03;18.90;66.80
3919;DHT22;1974;48.670;8.994;2024-03-22T15:47:30;18.90;66.50
3919;DHT22;1974;48.670;8.994;2024-03-22T15:49:57;18.80;67.70
3919;DHT22;1974;48.670;8.994;2024-03-22T15:52:23;18.80;68.00
3919;DHT22;1974;48.670;8.994;2024-03-22T15:54:50;18.80;67.30
3919;DHT22;1974;48.670;8.994;2024-03-22T15:57:18;18.70;66.80
3919;DHT22;1974;48.670;8.994;2024-03-22T15:59:45;18.60;64.20
3919;DHT22;1974;48.670;8.994;2024-03-22T16:02:12;18.60;64.40
3919;DHT22;1974;48.670;8.994;2024-03-22T16:04:39;18.50;65.50
3919;DHT22;1974;48.670;8.994;2024-03-22T16:07:05;18.30;66.00
3919;DHT22;1974;48.670;8.994;2024-03-22T16:09:31;18.30;68.80
3919;DHT22;1974;48.670;8.994;2024-03-22T16:11:57;18.20;66.90